createdAt,value
2018-06-10T00:00:51.039Z,100.00
2018-06-10T00:03:20.997Z,100.00
2018-06-10T00:05:50.776Z,100.00
2018-06-10T00:08:20.433Z,100.00
2018-06-10T00:10:50.553Z,100.00
2018-06-10T00:13:20.419Z,100.00
2018-06-10T00:15:50.392Z,100.00
2018-06-10T00:18:20.357Z,100.00
2018-06-10T00:20:50.371Z,100.00
2018-06-10T00:23:20.266Z,100.00
2018-06-10T00:25:50.154Z,100.00
2018-06-10T00:28:25.126Z,100.00
2018-06-10T00:30:55.103Z,100.00
2018-06-10T00:33:25.348Z,100.00
2018-06-10T00:35:55.438Z,100.00
2018-06-10T00:38:24.956Z,100.00
2018-06-10T00:40:55.001Z,100.00
2018-06-10T00:43:24.572Z,100.00
2018-06-10T00:45:54.633Z,100.00
2018-06-10T00:48:24.604Z,100.00
2018-06-10T00:50:54.374Z,100.00
2018-06-10T00:53:24.062Z,100.00
2018-06-10T00:55:53.784Z,100.00
2018-06-10T00:58:23.508Z,100.00
2018-06-10T01:00:53.192Z,100.00
2018-06-10T01:03:22.837Z,100.00
2018-06-10T01:05:52.489Z,100.00
2018-06-10T01:08:22.398Z,100.00
2018-06-10T01:10:52.064Z,100.00
2018-06-10T01:13:21.706Z,100.00
2018-06-10T01:15:51.442Z,100.00
2018-06-10T01:18:20.736Z,100.00
2018-06-10T01:20:50.437Z,100.00
2018-06-10T01:23:20.100Z,100.00
2018-06-10T01:25:49.752Z,100.00
2018-06-10T01:28:19.425Z,100.00
2018-06-10T01:30:49.108Z,100.00
2018-06-10T01:33:18.729Z,100.00
2018-06-10T01:35:48.397Z,100.00
2018-06-10T01:38:18.523Z,100.00
2018-06-10T01:40:51.865Z,100.00
2018-06-10T01:43:21.601Z,100.00
2018-06-10T01:45:56.412Z,100.00
2018-06-10T01:48:25.745Z,100.00
2018-06-10T01:50:55.426Z,100.00
2018-06-10T01:53:24.811Z,100.00
2018-06-10T01:55:54.505Z,100.00
2018-06-10T01:58:24.398Z,100.00
2018-06-10T02:00:54.070Z,100.00
2018-06-10T02:03:23.408Z,100.00
2018-06-10T02:05:53.101Z,100.00
2018-06-10T02:08:24.556Z,100.00
2018-06-10T02:10:54.205Z,100.00
2018-06-10T02:13:24.100Z,100.00
2018-06-10T02:15:53.746Z,100.00
2018-06-10T02:18:23.410Z,100.00
2018-06-10T02:20:53.076Z,100.00
2018-06-10T02:23:25.030Z,100.00
2018-06-10T02:25:54.664Z,100.00
2018-06-10T02:28:24.333Z,100.00
2018-06-10T02:30:54.042Z,100.00
2018-06-10T02:33:23.752Z,100.00
2018-06-10T02:35:53.526Z,100.00
2018-06-10T02:38:23.419Z,100.00
2018-06-10T02:40:53.085Z,100.00
2018-06-10T02:43:22.766Z,100.00
2018-06-10T02:45:52.493Z,100.00
2018-06-10T02:48:22.191Z,100.00
2018-06-10T02:50:51.812Z,100.00
2018-06-10T02:53:21.704Z,100.00
2018-06-10T02:55:51.351Z,100.00
2018-06-10T02:58:20.703Z,100.00
2018-06-10T03:00:50.462Z,100.00
2018-06-10T03:03:20.153Z,100.00
2018-06-10T03:05:49.874Z,100.00
2018-06-10T03:08:19.651Z,100.00
2018-06-10T03:10:49.310Z,100.00
2018-06-10T03:13:18.961Z,100.00
2018-06-10T03:15:48.718Z,100.00
2018-06-10T03:18:18.349Z,100.00
2018-06-10T03:20:48.165Z,100.00
2018-06-10T03:23:17.883Z,100.00
2018-06-10T03:25:47.666Z,100.00
2018-06-10T03:28:17.461Z,100.00
2018-06-10T03:30:47.138Z,100.00
2018-06-10T03:33:16.449Z,100.00
2018-06-10T03:35:46.114Z,100.00
2018-06-10T03:38:15.910Z,100.00
2018-06-10T03:40:45.565Z,100.00
2018-06-10T03:43:15.233Z,100.00
2018-06-10T03:45:44.998Z,100.00
2018-06-10T03:48:14.785Z,100.00
2018-06-10T03:50:44.788Z,100.00
2018-06-10T03:53:14.445Z,100.00
2018-06-10T03:55:44.142Z,100.00
2018-06-10T03:58:13.750Z,100.00
2018-06-10T04:00:43.414Z,100.00
2018-06-10T04:03:13.049Z,100.00
2018-06-10T04:05:42.741Z,100.00
2018-06-10T04:08:12.421Z,100.00
2018-06-10T04:10:41.794Z,100.00
2018-06-10T04:13:11.674Z,100.00
2018-06-10T04:15:41.388Z,100.00
2018-06-10T04:18:11.100Z,100.00
2018-06-10T04:20:40.777Z,100.00
2018-06-10T04:23:10.522Z,100.00
2018-06-10T04:25:40.161Z,100.00
2018-06-10T04:28:10.210Z,100.00
2018-06-10T04:30:39.925Z,100.00
2018-06-10T04:33:09.841Z,100.00
2018-06-10T04:35:39.522Z,100.00
2018-06-10T04:38:09.270Z,100.00
2018-06-10T04:40:38.926Z,100.00
2018-06-10T04:43:08.610Z,100.00
2018-06-10T04:45:38.284Z,100.00
2018-06-10T04:48:07.930Z,100.00
2018-06-10T04:50:37.598Z,100.00
2018-06-10T04:53:07.476Z,100.00
2018-06-10T04:55:37.165Z,100.00
2018-06-10T04:58:06.840Z,100.00
2018-06-10T05:00:36.505Z,100.00
2018-06-10T05:03:05.860Z,100.00
2018-06-10T05:05:35.569Z,100.00
2018-06-10T05:08:05.285Z,100.00
2018-06-10T05:10:34.946Z,100.00
2018-06-10T05:13:04.658Z,100.00
2018-06-10T05:15:34.311Z,100.00
2018-06-10T05:18:04.026Z,100.00
2018-06-10T05:20:33.792Z,100.00
2018-06-10T05:23:03.540Z,100.00
2018-06-10T05:25:33.222Z,100.00
2018-06-10T05:28:02.593Z,100.00
2018-06-10T05:30:32.240Z,100.00
2018-06-10T05:33:01.957Z,100.00
2018-06-10T05:35:31.700Z,100.00
2018-06-10T05:38:01.469Z,100.00
2018-06-10T05:40:31.101Z,100.00
2018-06-10T05:43:00.457Z,100.00
2018-06-10T05:45:30.139Z,100.00
2018-06-10T05:47:59.847Z,100.00
2018-06-10T05:50:29.545Z,100.00
2018-06-10T05:52:59.243Z,100.00
2018-06-10T05:55:28.877Z,100.00
2018-06-10T05:57:58.596Z,100.00
2018-06-10T06:00:28.319Z,100.00
2018-06-10T06:02:57.759Z,100.00
2018-06-10T06:05:27.552Z,100.00
2018-06-10T06:07:57.245Z,100.00
2018-06-10T06:10:26.608Z,99.41
2018-06-10T06:12:56.255Z,97.55
2018-06-10T06:15:26.148Z,99.41
2018-06-10T06:17:55.766Z,96.58
2018-06-10T06:20:25.497Z,96.20
2018-06-10T06:22:54.817Z,96.79
2018-06-10T06:25:24.519Z,93.84
2018-06-10T06:27:53.863Z,92.58
2018-06-10T06:30:23.502Z,92.66
2018-06-10T06:32:53.336Z,93.53
2018-06-10T06:35:23.046Z,92.47
2018-06-10T06:37:52.799Z,93.27
2018-06-10T06:40:22.500Z,93.14
2018-06-10T06:42:51.857Z,94.22
2018-06-10T06:45:21.263Z,90.92
2018-06-10T06:47:50.978Z,91.12
2018-06-10T06:50:20.607Z,91.09
2018-06-10T06:52:50.736Z,90.25
2018-06-10T06:55:20.489Z,88.77
2018-06-10T06:57:50.356Z,90.03
2018-06-10T07:00:19.957Z,90.82
2018-06-10T07:02:49.604Z,88.66
2018-06-10T07:05:19.216Z,88.77
2018-06-10T07:07:48.949Z,90.08
2018-06-10T07:10:18.590Z,89.27
2018-06-10T07:12:48.260Z,87.15
2018-06-10T07:15:17.921Z,85.62
2018-06-10T07:17:47.554Z,86.31
2018-06-10T07:20:17.431Z,89.85
2018-06-10T07:22:47.189Z,87.51
2018-06-10T07:25:16.816Z,89.32
2018-06-10T07:27:46.492Z,86.98
2018-06-10T07:30:16.122Z,88.44
2018-06-10T07:32:45.809Z,91.87
2018-06-10T07:35:15.446Z,91.74
2018-06-10T07:37:45.085Z,90.24
2018-06-10T07:40:14.781Z,90.53
2018-06-10T07:42:44.462Z,91.13
2018-06-10T07:45:14.096Z,92.13
2018-06-10T07:47:43.965Z,94.48
2018-06-10T07:50:13.617Z,93.45
2018-06-10T07:52:43.388Z,93.91
2018-06-10T07:55:13.122Z,93.23
2018-06-10T08:00:08.724Z,94.23
2018-06-10T08:02:38.337Z,92.60
2018-06-10T08:05:08.158Z,95.63
2018-06-10T08:07:37.806Z,93.11
2018-06-10T08:10:07.764Z,92.87
2018-06-10T08:12:37.433Z,92.62
2018-06-10T08:15:07.288Z,95.45
2018-06-10T08:17:37.086Z,96.80
2018-06-10T08:20:06.795Z,95.15
2018-06-10T08:22:36.454Z,95.03
2018-06-10T08:25:05.923Z,91.75
2018-06-10T08:27:35.638Z,93.00
2018-06-10T08:30:05.995Z,91.29
2018-06-10T08:32:35.361Z,90.29
2018-06-10T08:35:05.062Z,89.37
2018-06-10T08:37:34.905Z,87.61
2018-06-10T08:40:04.668Z,88.20
2018-06-10T08:42:34.351Z,90.19
2018-06-10T08:45:04.094Z,90.13
2018-06-10T08:47:33.813Z,90.75
2018-06-10T08:50:03.498Z,90.06
2018-06-10T08:52:33.257Z,88.42
2018-06-10T08:55:03.186Z,86.06
2018-06-10T08:57:32.980Z,86.43
2018-06-10T09:00:02.737Z,83.36
2018-06-10T09:02:32.400Z,81.78
2018-06-10T09:05:02.137Z,78.78
2018-06-10T09:07:31.813Z,75.19
2018-06-10T09:10:01.474Z,79.18
2018-06-10T09:12:31.225Z,77.46
2018-06-10T09:15:01.009Z,77.97
2018-06-10T09:17:30.810Z,80.27
2018-06-10T09:20:00.614Z,81.35
2018-06-10T09:22:30.259Z,85.14
2018-06-10T09:24:59.931Z,83.90
2018-06-10T09:27:29.590Z,82.10
2018-06-10T09:29:59.314Z,80.64
2018-06-10T09:32:29.161Z,81.80
2018-06-10T09:34:58.870Z,82.49
2018-06-10T09:37:28.693Z,82.03
2018-06-10T09:39:58.432Z,81.20
2018-06-10T09:42:28.181Z,79.43
2018-06-10T09:44:57.812Z,81.36
2018-06-10T09:47:27.507Z,77.40
2018-06-10T09:49:57.281Z,76.90
2018-06-10T09:52:26.987Z,79.29
2018-06-10T09:54:56.675Z,79.39
2018-06-10T09:57:26.352Z,78.50
2018-06-10T09:59:56.217Z,82.08
2018-06-10T10:02:25.921Z,75.71
2018-06-10T10:04:55.348Z,73.21
2018-06-10T10:07:25.015Z,72.96
2018-06-10T10:09:54.729Z,73.12
2018-06-10T10:12:24.582Z,66.85
2018-06-10T10:14:54.330Z,61.90
2018-06-10T10:17:24.065Z,56.84
2018-06-10T10:19:53.779Z,57.96
2018-06-10T10:22:23.469Z,63.56
2018-06-10T10:24:53.249Z,58.44
2018-06-10T10:27:23.181Z,61.35
2018-06-10T10:29:52.858Z,54.70
2018-06-10T10:32:22.304Z,51.11
2018-06-10T10:34:51.982Z,52.62
2018-06-10T10:37:21.357Z,57.09
2018-06-10T10:39:51.046Z,60.58
2018-06-10T10:42:20.696Z,57.09
2018-06-10T10:44:50.359Z,60.44
2018-06-10T10:47:20.021Z,63.44
2018-06-10T10:49:49.764Z,64.52
2018-06-10T10:52:19.504Z,66.07
2018-06-10T10:54:49.179Z,62.72
2018-06-10T10:57:18.652Z,65.91
2018-06-10T10:59:48.341Z,60.56
2018-06-10T11:02:17.986Z,57.40
2018-06-10T11:04:47.654Z,56.87
2018-06-10T11:07:17.371Z,50.83
2018-06-10T11:09:47.050Z,54.08
2018-06-10T11:12:16.371Z,56.17
2018-06-10T11:14:46.112Z,59.32
2018-06-10T11:17:15.782Z,54.55
2018-06-10T11:19:45.499Z,54.06
2018-06-10T11:22:15.208Z,50.46
2018-06-10T11:24:44.596Z,55.23
2018-06-10T11:27:14.345Z,58.14
2018-06-10T11:29:43.933Z,56.56
2018-06-10T11:32:13.392Z,58.06
2018-06-10T11:34:43.093Z,58.78
2018-06-10T11:37:12.774Z,62.79
2018-06-10T11:39:42.459Z,61.97
2018-06-10T11:42:12.125Z,61.49
2018-06-10T11:44:41.430Z,63.49
2018-06-10T11:47:11.102Z,60.76
2018-06-10T11:49:40.756Z,63.96
2018-06-10T11:52:10.549Z,61.12
2018-06-10T11:54:40.144Z,60.28
2018-06-10T11:57:09.493Z,61.78
2018-06-10T11:59:39.356Z,54.26
2018-06-10T12:02:09.155Z,60.20
2018-06-10T12:04:38.830Z,57.38
2018-06-10T12:07:08.506Z,54.46
2018-06-10T12:09:37.788Z,51.75
2018-06-10T12:12:07.457Z,49.51
2018-06-10T12:14:37.268Z,50.04
2018-06-10T12:17:07.020Z,52.23
2018-06-10T12:19:36.802Z,48.60
2018-06-10T12:22:06.589Z,51.05
2018-06-10T12:24:35.924Z,55.67
2018-06-10T12:27:05.706Z,49.96
2018-06-10T12:29:35.405Z,50.49
2018-06-10T12:32:05.199Z,46.84
2018-06-10T12:34:34.964Z,45.17
2018-06-10T12:37:04.751Z,46.47
2018-06-10T12:39:34.490Z,50.82
2018-06-10T12:42:04.149Z,47.42
2018-06-10T12:44:33.808Z,52.20
2018-06-10T12:47:03.144Z,48.24
2018-06-10T12:49:32.823Z,48.95
2018-06-10T12:52:02.244Z,54.36
2018-06-10T12:54:31.949Z,50.08
2018-06-10T12:57:01.605Z,50.99
2018-06-10T12:59:31.298Z,49.89
2018-06-10T13:02:01.004Z,47.24
2018-06-10T13:04:30.736Z,48.74
2018-06-10T13:07:00.450Z,52.87
2018-06-10T13:09:30.125Z,50.49
2018-06-10T13:11:59.508Z,50.83
2018-06-10T13:14:29.237Z,53.57
2018-06-10T13:16:58.651Z,56.47
2018-06-10T13:19:28.059Z,54.54
2018-06-10T13:21:57.421Z,53.23
2018-06-10T13:24:27.127Z,52.79
2018-06-10T13:26:56.808Z,52.11
2018-06-10T13:29:26.556Z,46.85
2018-06-10T13:31:56.215Z,52.33
2018-06-10T13:34:25.620Z,53.02
2018-06-10T13:36:55.274Z,56.58
2018-06-10T13:39:24.969Z,51.83
2018-06-10T13:41:54.650Z,54.02
2018-06-10T13:44:23.998Z,51.04
2018-06-10T13:46:53.729Z,56.14
2018-06-10T13:49:23.377Z,54.35
2018-06-10T13:51:53.061Z,56.72
2018-06-10T13:54:22.843Z,54.70
2018-06-10T13:56:52.519Z,60.06
2018-06-10T13:59:22.223Z,56.20
2018-06-10T14:01:51.871Z,56.34
2018-06-10T14:04:21.567Z,53.13
2018-06-10T14:06:51.094Z,56.38
2018-06-10T14:09:20.791Z,55.80
2018-06-10T14:11:50.134Z,57.92
2018-06-10T14:14:19.800Z,56.88
2018-06-10T14:16:49.209Z,58.85
2018-06-10T14:19:19.141Z,57.23
2018-06-10T14:21:48.926Z,54.15
2018-06-10T14:24:18.700Z,55.82
2018-06-10T14:26:48.337Z,50.24
2018-06-10T14:29:18.122Z,49.34
2018-06-10T14:31:47.888Z,47.57
2018-06-10T14:34:17.597Z,46.52
2018-06-10T14:36:47.313Z,44.25
2018-06-10T14:39:16.958Z,44.38
2018-06-10T14:41:46.732Z,47.58
2018-06-10T14:44:16.485Z,42.45
2018-06-10T14:46:46.211Z,42.89
2018-06-10T14:49:15.899Z,44.16
2018-06-10T14:51:45.230Z,49.41
2018-06-10T14:54:14.992Z,45.00
2018-06-10T14:56:44.725Z,49.96
2018-06-10T14:59:14.476Z,47.38
2018-06-10T15:01:44.253Z,46.38
2018-06-10T15:04:14.031Z,46.35
2018-06-10T15:06:43.771Z,49.27
2018-06-10T15:09:13.458Z,44.95
2018-06-10T15:11:43.153Z,43.22
2018-06-10T15:14:12.825Z,48.33
2018-06-10T15:16:42.120Z,52.25
2018-06-10T15:19:11.883Z,45.97
2018-06-10T15:21:41.683Z,47.01
2018-06-10T15:24:11.421Z,48.57
2018-06-10T15:26:41.093Z,51.52
2018-06-10T15:29:10.552Z,50.72
2018-06-10T15:31:40.235Z,51.19
2018-06-10T15:34:10.246Z,53.45
2018-06-10T15:36:39.945Z,50.30
2018-06-10T15:39:09.388Z,48.39
2018-06-10T15:41:39.959Z,49.89
2018-06-10T15:44:09.606Z,49.78
2018-06-10T15:46:39.275Z,47.43
2018-06-10T15:49:08.969Z,46.99
2018-06-10T15:51:38.662Z,48.82
2018-06-10T15:54:08.409Z,50.24
2018-06-10T15:56:38.201Z,49.76
2018-06-10T15:59:07.884Z,48.82
2018-06-10T16:01:37.587Z,49.16
2018-06-10T16:04:07.293Z,49.24
2018-06-10T16:06:37.043Z,49.57
2018-06-10T16:09:08.902Z,51.46
2018-06-10T16:11:38.536Z,53.94
2018-06-10T16:14:08.330Z,52.94
2018-06-10T16:16:38.049Z,57.86
2018-06-10T16:19:07.736Z,57.23
2018-06-10T16:21:37.607Z,56.55
2018-06-10T16:24:07.611Z,55.78
2018-06-10T16:26:37.288Z,56.18
2018-06-10T16:29:06.613Z,56.57
2018-06-10T16:31:36.321Z,57.02
2018-06-10T16:34:06.069Z,54.80
2018-06-10T16:36:35.747Z,56.58
2018-06-10T16:39:09.294Z,55.55
2018-06-10T16:41:39.100Z,55.74
2018-06-10T16:44:08.798Z,56.85
2018-06-10T16:46:38.463Z,58.77
2018-06-10T16:49:08.207Z,58.87
2018-06-10T16:51:37.977Z,59.20
2018-06-10T16:54:07.685Z,58.09
2018-06-10T16:56:37.494Z,59.64
2018-06-10T16:59:07.240Z,58.98
2018-06-10T17:01:36.644Z,59.84
2018-06-10T17:04:06.037Z,58.43
2018-06-10T17:06:35.678Z,57.96
2018-06-10T17:09:09.612Z,58.36
2018-06-10T17:11:39.320Z,61.91
2018-06-10T17:14:09.264Z,60.59
2018-06-10T17:16:39.026Z,60.41
2018-06-10T17:19:08.713Z,63.74
2018-06-10T17:21:38.431Z,62.32
2018-06-10T17:24:08.171Z,62.64
2018-06-10T17:26:37.813Z,61.53
2018-06-10T17:29:07.625Z,62.33
2018-06-10T17:31:37.339Z,63.07
2018-06-10T17:34:07.242Z,62.52
2018-06-10T17:36:37.048Z,62.92
2018-06-10T17:39:08.741Z,63.84
2018-06-10T17:41:38.497Z,64.70
2018-06-10T17:44:08.280Z,64.28
2018-06-10T17:46:37.993Z,66.18
2018-06-10T17:49:07.850Z,67.13
2018-06-10T17:51:37.263Z,67.12
2018-06-10T17:54:07.043Z,66.92
2018-06-10T17:56:36.771Z,68.50
2018-06-10T17:59:06.543Z,66.77
2018-06-10T18:01:36.241Z,67.54
2018-06-10T18:04:06.066Z,67.29
2018-06-10T18:06:35.824Z,68.22
2018-06-10T18:09:08.134Z,67.14
2018-06-10T18:11:37.989Z,67.59
2018-06-10T18:14:07.751Z,67.70
2018-06-10T18:16:37.176Z,67.93
2018-06-10T18:19:07.203Z,67.21
2018-06-10T18:21:36.947Z,68.86
2018-06-10T18:24:06.897Z,68.97
2018-06-10T18:26:36.646Z,70.85
2018-06-10T18:29:06.473Z,69.19
2018-06-10T18:31:36.171Z,68.57
2018-06-10T18:34:06.133Z,68.99
2018-06-10T18:36:35.946Z,69.26
2018-06-10T18:39:08.604Z,68.20
2018-06-10T18:41:38.516Z,68.74
2018-06-10T18:44:08.391Z,68.33
2018-06-10T18:46:38.155Z,70.29
2018-06-10T18:49:07.998Z,68.88
2018-06-10T18:51:37.838Z,70.16
2018-06-10T18:54:07.847Z,69.25
2018-06-10T18:56:37.638Z,69.10
2018-06-10T18:59:07.472Z,69.72
2018-06-10T19:01:37.193Z,70.59
2018-06-10T19:04:06.910Z,70.42
2018-06-10T19:06:36.789Z,69.87
2018-06-10T19:09:09.706Z,71.54
2018-06-10T19:11:39.433Z,71.19
2018-06-10T19:14:09.175Z,73.21
2018-06-10T19:16:38.882Z,71.46
2018-06-10T19:19:08.213Z,70.64
2018-06-10T19:21:37.932Z,73.39
2018-06-10T19:24:07.591Z,73.30
2018-06-10T19:26:37.274Z,73.54
2018-06-10T19:29:07.227Z,73.07
2018-06-10T19:31:36.980Z,74.91
2018-06-10T19:34:06.659Z,75.16
2018-06-10T19:36:36.467Z,76.12
2018-06-10T19:39:08.750Z,75.21
2018-06-10T19:41:38.526Z,75.97
2018-06-10T19:44:08.234Z,75.70
2018-06-10T19:46:38.107Z,76.92
2018-06-10T19:49:07.558Z,78.14
2018-06-10T19:51:37.244Z,78.44
2018-06-10T19:54:06.959Z,79.82
2018-06-10T19:56:36.666Z,78.67
2018-06-10T19:59:06.419Z,79.49
2018-06-10T20:01:36.081Z,79.86
2018-06-10T20:04:05.825Z,79.86
2018-06-10T20:06:35.549Z,79.66
2018-06-10T20:09:07.585Z,80.21
2018-06-10T20:11:37.529Z,80.27
2018-06-10T20:14:07.247Z,80.63
2018-06-10T20:16:36.983Z,81.99
2018-06-10T20:19:06.709Z,82.58
2018-06-10T20:21:36.385Z,82.90
2018-06-10T20:24:06.140Z,82.40
2018-06-10T20:26:35.827Z,82.17
2018-06-10T20:29:05.540Z,82.79
2018-06-10T20:31:35.222Z,82.63
2018-06-10T20:34:05.075Z,83.24
2018-06-10T20:36:34.944Z,83.23
2018-06-10T20:39:06.865Z,83.25
2018-06-10T20:41:36.761Z,82.88
2018-06-10T20:44:06.521Z,83.04
2018-06-10T20:46:35.922Z,83.66
2018-06-10T20:49:05.354Z,83.68
2018-06-10T20:51:35.136Z,84.15
2018-06-10T20:54:04.934Z,83.40
2018-06-10T20:56:34.771Z,83.59
2018-06-10T20:59:04.586Z,83.70
2018-06-10T21:01:34.282Z,83.76
2018-06-10T21:04:04.161Z,84.25
2018-06-10T21:06:33.862Z,85.17
2018-06-10T21:09:04.184Z,84.52
2018-06-10T21:11:34.010Z,83.99
2018-06-10T21:14:03.793Z,84.28
2018-06-10T21:16:33.523Z,84.97
2018-06-10T21:19:02.894Z,84.79
2018-06-10T21:21:32.571Z,85.57
2018-06-10T21:24:02.206Z,84.90
2018-06-10T21:26:32.008Z,84.29
2018-06-10T21:29:01.710Z,83.60
2018-06-10T21:31:31.371Z,84.17
2018-06-10T21:34:01.088Z,84.42
2018-06-10T21:36:30.796Z,85.12
2018-06-10T21:39:00.528Z,84.33
2018-06-10T21:41:30.229Z,84.19
2018-06-10T21:43:59.878Z,84.57
2018-06-10T21:46:29.538Z,84.35
2018-06-10T21:48:59.251Z,84.31
2018-06-10T21:51:28.916Z,85.33
2018-06-10T21:53:58.554Z,84.80
2018-06-10T21:56:28.202Z,85.10
2018-06-10T21:58:57.870Z,85.86
2018-06-10T22:01:27.601Z,85.60
2018-06-10T22:03:57.262Z,85.10
2018-06-10T22:06:27.357Z,85.11
2018-06-10T22:08:57.016Z,85.83
2018-06-10T22:11:26.744Z,86.26
2018-06-10T22:13:56.442Z,87.86
2018-06-10T22:16:26.210Z,87.99
2018-06-10T22:18:55.842Z,87.99
2018-06-10T22:21:25.353Z,89.10
2018-06-10T22:23:54.680Z,88.05
2018-06-10T22:26:24.337Z,88.74
2018-06-10T22:28:54.004Z,89.03
2018-06-10T22:31:23.715Z,88.49
2018-06-10T22:33:54.152Z,89.17
2018-06-10T22:36:24.006Z,89.08
2018-06-10T22:38:53.653Z,88.88
2018-06-10T22:41:23.036Z,87.81
2018-06-10T22:43:52.796Z,89.11
2018-06-10T22:46:22.541Z,88.65
2018-06-10T22:48:52.205Z,89.11
2018-06-10T22:51:21.986Z,88.83
2018-06-10T22:54:17.329Z,87.70
2018-06-10T22:56:46.967Z,88.62
2018-06-10T22:59:16.600Z,88.87
2018-06-10T23:01:46.263Z,87.28
2018-06-10T23:04:16.135Z,87.79
2018-06-10T23:06:45.767Z,87.69
2018-06-10T23:09:15.478Z,86.57
2018-06-10T23:11:45.179Z,86.70
2018-06-10T23:14:14.805Z,87.79
2018-06-10T23:16:44.528Z,88.06
2018-06-10T23:19:13.802Z,87.73
2018-06-10T23:21:43.454Z,87.25
2018-06-10T23:24:13.079Z,86.71
2018-06-10T23:26:42.813Z,86.66
2018-06-10T23:29:12.101Z,86.88
2018-06-10T23:31:41.727Z,86.03
2018-06-10T23:34:11.343Z,85.99
2018-06-10T23:36:41.006Z,87.05
2018-06-10T23:39:10.320Z,86.77
2018-06-10T23:41:39.965Z,86.78
2018-06-10T23:44:09.669Z,88.08
2018-06-10T23:46:39.447Z,87.92
2018-06-10T23:49:08.781Z,88.06
2018-06-10T23:51:38.449Z,88.86
2018-06-10T23:54:08.147Z,89.44
2018-06-10T23:56:37.811Z,89.29
2018-06-10T23:59:07.565Z,89.76
